This is the latest recevied weather packets stored in our database for station/object AA4OM-2. If no packets are shown the sender has not sent any weather packets the latest 10 day(s).
| Time | Temp. | Humidity | Pressure | Rain* | Wind** | Luminosity | Snow |
|---|---|---|---|---|---|---|---|
| 1777901868 | 18.33° C | 65% | 1013.9 hPa | 0 mm | - | 139 W/m² | - |
| 1777901565 | 18.33° C | 66% | 1013.9 hPa | 0 mm | - | 129 W/m² | - |
| 1777901262 | 17.78° C | 65% | 1014 hPa | 0 mm | - | 164 W/m² | - |
| 1777900959 | 17.78° C | 66% | 1014 hPa | 0 mm | - | 103 W/m² | - |
| 1777900656 | 17.78° C | 66% | 1013.9 hPa | 0 mm | - | 112 W/m² | - |
| 1777900354 | 17.78° C | 66% | 1013.9 hPa | 0 mm | - | 146 W/m² | - |
| 1777900051 | 17.22° C | 67% | 1013.6 hPa | 0 mm | - | 139 W/m² | - |
| 1777899746 | 17.22° C | 70% | 1013.8 hPa | 0 mm | - | 132 W/m² | - |
| 1777898234 | 15° C | 77% | 1013.7 hPa | 0 mm | - | 79 W/m² | - |
| 1777897931 | 14.44° C | 77% | 1013.7 hPa | 0 mm | - | 80 W/m² | - |
| 1777897626 | 13.89° C | 80% | 1013.6 hPa | 0 mm | - | 77 W/m² | - |
| 1777897323 | 13.33° C | 80% | 1013.6 hPa | 0 mm | - | 68 W/m² | - |
| 1777897019 | 13.33° C | 79% | 1014 hPa | 0 mm | - | 60 W/m² | - |
| 1777896716 | 13.33° C | 80% | 1013.6 hPa | 0 mm | - | 52 W/m² | - |
| 1777896413 | 13.33° C | 80% | 1013.7 hPa | 0 mm | - | 49 W/m² | - |
| 1777895808 | 13.33° C | 81% | 1013.7 hPa | 0 mm | - | 44 W/m² | - |
| 1777894598 | 14.44° C | 74% | 1013.1 hPa | 0 mm | - | 25 W/m² | - |
| 1777894295 | 14.44° C | 69% | 1013.6 hPa | 0 mm | - | 21 W/m² | - |
| 1777893992 | 14.44° C | 69% | 1013.2 hPa | 0 mm | - | 17 W/m² | - |
| 1777893688 | 14.44° C | 68% | 1013.2 hPa | 0 mm | - | 14 W/m² | - |
| 1777893384 | 14.44° C | 67% | 1013.3 hPa | 0 mm | - | 10 W/m² | - |
| 1777893080 | 15° C | 67% | 1013.3 hPa | 0 mm | - | 7 W/m² | - |
| 1777892778 | 15° C | 67% | 1013.1 hPa | 0 mm | - | 4 W/m² | - |
| 1777892474 | 15° C | 66% | 1013.1 hPa | 0 mm | - | 3 W/m² | - |
| 1777892170 | 15° C | 66% | 1013.1 hPa | 0 mm | - | 1 W/m² | - |
* Rain latest hour (hover to see other rain measurements)
** Current wind speed in m/s (hover to see current wind gust speed)